sensor_id;sensor_type;location;lat;lon;timestamp;temperature;humidity
23633;DHT22;11993;48.748;9.166;2024-02-21T00:02:04;6.80;76.20
23633;DHT22;11993;48.748;9.166;2024-02-21T00:04:30;6.70;76.60
23633;DHT22;11993;48.748;9.166;2024-02-21T00:06:55;6.60;77.10
23633;DHT22;11993;48.748;9.166;2024-02-21T00:09:21;6.60;77.10
23633;DHT22;11993;48.748;9.166;2024-02-21T00:11:46;6.60;77.20
23633;DHT22;11993;48.748;9.166;2024-02-21T00:14:13;6.40;77.50
23633;DHT22;11993;48.748;9.166;2024-02-21T00:16:38;6.40;77.80
23633;DHT22;11993;48.748;9.166;2024-02-21T00:19:04;6.60;77.40
23633;DHT22;11993;48.748;9.166;2024-02-21T00:21:29;6.60;77.50
23633;DHT22;11993;48.748;9.166;2024-02-21T00:23:55;6.40;77.50
23633;DHT22;11993;48.748;9.166;2024-02-21T00:26:21;6.50;77.50
23633;DHT22;11993;48.748;9.166;2024-02-21T00:28:46;6.50;77.40
23633;DHT22;11993;48.748;9.166;2024-02-21T00:31:12;6.50;77.20
23633;DHT22;11993;48.748;9.166;2024-02-21T00:33:37;6.20;78.70
23633;DHT22;11993;48.748;9.166;2024-02-21T00:36:03;6.20;78.70
23633;DHT22;11993;48.748;9.166;2024-02-21T00:38:29;6.40;78.20
23633;DHT22;11993;48.748;9.166;2024-02-21T00:40:54;6.30;77.80
23633;DHT22;11993;48.748;9.166;2024-02-21T00:43:20;6.40;78.00
23633;DHT22;11993;48.748;9.166;2024-02-21T00:45:49;6.30;77.80
23633;DHT22;11993;48.748;9.166;2024-02-21T00:48:14;6.10;78.70
23633;DHT22;11993;48.748;9.166;2024-02-21T00:50:40;6.20;78.40
23633;DHT22;11993;48.748;9.166;2024-02-21T00:53:05;6.00;78.80
23633;DHT22;11993;48.748;9.166;2024-02-21T00:55:31;6.10;78.90
23633;DHT22;11993;48.748;9.166;2024-02-21T00:57:56;6.00;79.20
23633;DHT22;11993;48.748;9.166;2024-02-21T01:00:22;6.10;79.10
23633;DHT22;11993;48.748;9.166;2024-02-21T01:02:48;6.00;79.40
23633;DHT22;11993;48.748;9.166;2024-02-21T01:05:13;6.20;78.70
23633;DHT22;11993;48.748;9.166;2024-02-21T01:07:39;6.00;79.20
23633;DHT22;11993;48.748;9.166;2024-02-21T01:10:05;6.00;79.30
23633;DHT22;11993;48.748;9.166;2024-02-21T01:12:31;6.00;79.00
23633;DHT22;11993;48.748;9.166;2024-02-21T01:14:56;6.10;78.90
23633;DHT22;11993;48.748;9.166;2024-02-21T01:17:22;6.00;79.00
23633;DHT22;11993;48.748;9.166;2024-02-21T01:19:47;6.00;79.20
23633;DHT22;11993;48.748;9.166;2024-02-21T01:22:13;5.80;79.90
23633;DHT22;11993;48.748;9.166;2024-02-21T01:24:40;5.90;79.80
23633;DHT22;11993;48.748;9.166;2024-02-21T01:27:06;5.90;79.80
23633;DHT22;11993;48.748;9.166;2024-02-21T01:29:32;5.80;79.60
23633;DHT22;11993;48.748;9.166;2024-02-21T01:31:57;5.70;79.90
23633;DHT22;11993;48.748;9.166;2024-02-21T01:34:23;5.80;79.60
23633;DHT22;11993;48.748;9.166;2024-02-21T01:36:49;5.70;79.90
23633;DHT22;11993;48.748;9.166;2024-02-21T01:39:14;5.70;80.10
23633;DHT22;11993;48.748;9.166;2024-02-21T01:41:40;5.70;79.50
23633;DHT22;11993;48.748;9.166;2024-02-21T01:44:05;5.80;79.60
23633;DHT22;11993;48.748;9.166;2024-02-21T01:46:31;5.80;79.40
23633;DHT22;11993;48.748;9.166;2024-02-21T01:48:57;5.80;79.10
23633;DHT22;11993;48.748;9.166;2024-02-21T01:51:24;5.80;79.00
23633;DHT22;11993;48.748;9.166;2024-02-21T01:53:51;5.80;79.20
23633;DHT22;11993;48.748;9.166;2024-02-21T01:56:17;5.80;79.20
23633;DHT22;11993;48.748;9.166;2024-02-21T01:58:44;5.70;79.30
23633;DHT22;11993;48.748;9.166;2024-02-21T02:01:10;5.60;79.50
23633;DHT22;11993;48.748;9.166;2024-02-21T02:03:36;5.60;79.30
23633;DHT22;11993;48.748;9.166;2024-02-21T02:06:04;5.50;79.80
23633;DHT22;11993;48.748;9.166;2024-02-21T02:08:30;5.60;79.90
23633;DHT22;11993;48.748;9.166;2024-02-21T02:10:57;5.60;79.80
23633;DHT22;11993;48.748;9.166;2024-02-21T02:13:22;5.50;79.90
23633;DHT22;11993;48.748;9.166;2024-02-21T02:15:49;5.60;80.00
23633;DHT22;11993;48.748;9.166;2024-02-21T02:18:15;5.50;79.90
23633;DHT22;11993;48.748;9.166;2024-02-21T02:20:41;5.60;79.60
23633;DHT22;11993;48.748;9.166;2024-02-21T02:25:44;5.60;79.80
23633;DHT22;11993;48.748;9.166;2024-02-21T02:28:10;5.60;79.90
23633;DHT22;11993;48.748;9.166;2024-02-21T02:30:36;5.60;79.70
23633;DHT22;11993;48.748;9.166;2024-02-21T02:33:03;5.60;79.70
23633;DHT22;11993;48.748;9.166;2024-02-21T02:35:29;5.50;79.80
23633;DHT22;11993;48.748;9.166;2024-02-21T02:37:54;5.50;79.80
23633;DHT22;11993;48.748;9.166;2024-02-21T02:40:20;5.60;79.70
23633;DHT22;11993;48.748;9.166;2024-02-21T02:42:46;5.60;79.60
23633;DHT22;11993;48.748;9.166;2024-02-21T02:45:12;5.60;79.50
23633;DHT22;11993;48.748;9.166;2024-02-21T02:47:39;5.60;79.30
23633;DHT22;11993;48.748;9.166;2024-02-21T02:50:06;5.60;79.30
23633;DHT22;11993;48.748;9.166;2024-02-21T02:52:32;5.50;79.30
23633;DHT22;11993;48.748;9.166;2024-02-21T02:54:57;5.50;79.50
23633;DHT22;11993;48.748;9.166;2024-02-21T02:57:23;5.60;79.60
23633;DHT22;11993;48.748;9.166;2024-02-21T02:59:49;5.60;79.60
23633;DHT22;11993;48.748;9.166;2024-02-21T03:02:15;5.60;79.80
23633;DHT22;11993;48.748;9.166;2024-02-21T03:04:40;5.60;79.90
23633;DHT22;11993;48.748;9.166;2024-02-21T03:07:06;5.50;80.40
23633;DHT22;11993;48.748;9.166;2024-02-21T03:09:32;5.40;80.80
23633;DHT22;11993;48.748;9.166;2024-02-21T03:11:57;5.60;80.80
23633;DHT22;11993;48.748;9.166;2024-02-21T03:14:28;5.40;81.10
23633;DHT22;11993;48.748;9.166;2024-02-21T03:16:54;5.40;81.60
23633;DHT22;11993;48.748;9.166;2024-02-21T03:19:20;5.40;81.50
23633;DHT22;11993;48.748;9.166;2024-02-21T03:21:45;5.50;81.50
23633;DHT22;11993;48.748;9.166;2024-02-21T03:24:11;5.50;81.70
23633;DHT22;11993;48.748;9.166;2024-02-21T03:26:36;5.60;81.60
23633;DHT22;11993;48.748;9.166;2024-02-21T03:29:05;5.70;81.40
23633;DHT22;11993;48.748;9.166;2024-02-21T03:31:31;5.80;80.70
23633;DHT22;11993;48.748;9.166;2024-02-21T03:33:57;5.60;80.60
23633;DHT22;11993;48.748;9.166;2024-02-21T03:36:22;5.80;80.30
23633;DHT22;11993;48.748;9.166;2024-02-21T03:38:48;5.70;80.50
23633;DHT22;11993;48.748;9.166;2024-02-21T03:41:14;5.80;80.60
23633;DHT22;11993;48.748;9.166;2024-02-21T03:43:39;5.70;80.40
23633;DHT22;11993;48.748;9.166;2024-02-21T03:46:05;5.80;80.20
23633;DHT22;11993;48.748;9.166;2024-02-21T03:48:31;5.70;80.00
23633;DHT22;11993;48.748;9.166;2024-02-21T03:50:58;5.60;79.90
23633;DHT22;11993;48.748;9.166;2024-02-21T03:53:23;5.60;80.40
23633;DHT22;11993;48.748;9.166;2024-02-21T03:55:49;5.60;80.20
23633;DHT22;11993;48.748;9.166;2024-02-21T03:58:14;5.60;80.10
23633;DHT22;11993;48.748;9.166;2024-02-21T04:00:40;5.70;79.50
23633;DHT22;11993;48.748;9.166;2024-02-21T04:03:06;5.60;79.30
23633;DHT22;11993;48.748;9.166;2024-02-21T04:05:32;5.60;79.20
23633;DHT22;11993;48.748;9.166;2024-02-21T04:07:58;5.60;79.10
23633;DHT22;11993;48.748;9.166;2024-02-21T04:10:24;5.60;79.30
23633;DHT22;11993;48.748;9.166;2024-02-21T04:12:49;5.60;78.90
23633;DHT22;11993;48.748;9.166;2024-02-21T04:15:16;5.60;78.70
23633;DHT22;11993;48.748;9.166;2024-02-21T04:17:42;5.60;79.10
23633;DHT22;11993;48.748;9.166;2024-02-21T04:20:14;5.50;79.10
23633;DHT22;11993;48.748;9.166;2024-02-21T04:22:40;5.50;78.80
23633;DHT22;11993;48.748;9.166;2024-02-21T04:25:06;5.40;78.80
23633;DHT22;11993;48.748;9.166;2024-02-21T04:27:32;5.40;78.60
23633;DHT22;11993;48.748;9.166;2024-02-21T04:29:57;5.30;78.80
23633;DHT22;11993;48.748;9.166;2024-02-21T04:32:23;5.30;79.00
23633;DHT22;11993;48.748;9.166;2024-02-21T04:34:48;5.40;78.70
23633;DHT22;11993;48.748;9.166;2024-02-21T04:37:14;5.40;78.50
23633;DHT22;11993;48.748;9.166;2024-02-21T04:39:40;5.50;78.30
23633;DHT22;11993;48.748;9.166;2024-02-21T04:42:06;5.40;78.40
23633;DHT22;11993;48.748;9.166;2024-02-21T04:44:31;5.40;78.70
23633;DHT22;11993;48.748;9.166;2024-02-21T04:46:57;5.40;78.50
23633;DHT22;11993;48.748;9.166;2024-02-21T04:49:22;5.30;78.50
23633;DHT22;11993;48.748;9.166;2024-02-21T04:51:48;5.30;78.50
23633;DHT22;11993;48.748;9.166;2024-02-21T04:54:13;5.40;78.00
23633;DHT22;11993;48.748;9.166;2024-02-21T04:56:39;5.40;78.00
23633;DHT22;11993;48.748;9.166;2024-02-21T04:59:04;5.30;77.90
23633;DHT22;11993;48.748;9.166;2024-02-21T05:01:30;5.50;77.80
23633;DHT22;11993;48.748;9.166;2024-02-21T05:03:56;5.40;77.50
23633;DHT22;11993;48.748;9.166;2024-02-21T05:06:21;5.40;77.20
23633;DHT22;11993;48.748;9.166;2024-02-21T05:08:47;5.50;77.20
23633;DHT22;11993;48.748;9.166;2024-02-21T05:11:13;5.40;77.40
23633;DHT22;11993;48.748;9.166;2024-02-21T05:13:38;5.40;77.40
23633;DHT22;11993;48.748;9.166;2024-02-21T05:16:04;5.40;76.80
23633;DHT22;11993;48.748;9.166;2024-02-21T05:18:30;5.40;77.20
23633;DHT22;11993;48.748;9.166;2024-02-21T05:20:56;5.60;77.00
23633;DHT22;11993;48.748;9.166;2024-02-21T05:23:21;5.50;76.80
23633;DHT22;11993;48.748;9.166;2024-02-21T05:25:47;5.40;76.90
23633;DHT22;11993;48.748;9.166;2024-02-21T05:28:12;5.40;76.90
23633;DHT22;11993;48.748;9.166;2024-02-21T05:30:38;5.40;76.80
23633;DHT22;11993;48.748;9.166;2024-02-21T05:33:06;5.40;76.60
23633;DHT22;11993;48.748;9.166;2024-02-21T05:35:33;5.40;76.50
23633;DHT22;11993;48.748;9.166;2024-02-21T05:37:59;5.40;76.20
23633;DHT22;11993;48.748;9.166;2024-02-21T05:40:25;5.40;76.80
23633;DHT22;11993;48.748;9.166;2024-02-21T05:42:51;5.40;76.60
23633;DHT22;11993;48.748;9.166;2024-02-21T05:45:17;5.20;76.90
23633;DHT22;11993;48.748;9.166;2024-02-21T05:47:43;5.30;76.80
23633;DHT22;11993;48.748;9.166;2024-02-21T05:50:09;5.30;76.90
23633;DHT22;11993;48.748;9.166;2024-02-21T05:52:35;5.20;77.20
23633;DHT22;11993;48.748;9.166;2024-02-21T05:55:01;5.20;77.10
23633;DHT22;11993;48.748;9.166;2024-02-21T05:57:26;5.20;77.20
23633;DHT22;11993;48.748;9.166;2024-02-21T05:59:52;5.10;77.70
23633;DHT22;11993;48.748;9.166;2024-02-21T06:02:18;5.00;77.90
23633;DHT22;11993;48.748;9.166;2024-02-21T06:04:43;5.10;77.80
23633;DHT22;11993;48.748;9.166;2024-02-21T06:07:09;5.00;77.90
23633;DHT22;11993;48.748;9.166;2024-02-21T06:09:35;5.10;77.70
23633;DHT22;11993;48.748;9.166;2024-02-21T06:12:00;5.00;77.90
23633;DHT22;11993;48.748;9.166;2024-02-21T06:14:26;4.90;78.30
23633;DHT22;11993;48.748;9.166;2024-02-21T06:16:52;5.00;77.90
23633;DHT22;11993;48.748;9.166;2024-02-21T06:19:18;5.10;77.90
23633;DHT22;11993;48.748;9.166;2024-02-21T06:21:43;5.10;78.00
23633;DHT22;11993;48.748;9.166;2024-02-21T06:24:09;5.10;77.80
23633;DHT22;11993;48.748;9.166;2024-02-21T06:26:35;5.00;77.80
23633;DHT22;11993;48.748;9.166;2024-02-21T06:29:01;5.10;78.00
23633;DHT22;11993;48.748;9.166;2024-02-21T06:31:27;5.10;78.10
23633;DHT22;11993;48.748;9.166;2024-02-21T06:33:53;5.00;78.10
23633;DHT22;11993;48.748;9.166;2024-02-21T06:36:19;5.10;77.50
23633;DHT22;11993;48.748;9.166;2024-02-21T06:38:45;5.10;77.50
23633;DHT22;11993;48.748;9.166;2024-02-21T06:41:17;5.20;77.40
23633;DHT22;11993;48.748;9.166;2024-02-21T06:43:45;5.20;77.20
23633;DHT22;11993;48.748;9.166;2024-02-21T06:46:11;5.30;76.90
23633;DHT22;11993;48.748;9.166;2024-02-21T06:48:37;5.30;76.50
23633;DHT22;11993;48.748;9.166;2024-02-21T06:51:03;5.20;76.90
23633;DHT22;11993;48.748;9.166;2024-02-21T06:53:30;5.30;76.80
23633;DHT22;11993;48.748;9.166;2024-02-21T06:55:55;5.10;76.80
23633;DHT22;11993;48.748;9.166;2024-02-21T06:58:21;5.50;76.10
23633;DHT22;11993;48.748;9.166;2024-02-21T07:00:47;5.40;75.90
23633;DHT22;11993;48.748;9.166;2024-02-21T07:03:13;5.50;76.10
23633;DHT22;11993;48.748;9.166;2024-02-21T07:05:39;5.60;75.60
23633;DHT22;11993;48.748;9.166;2024-02-21T07:08:05;5.60;75.30
23633;DHT22;11993;48.748;9.166;2024-02-21T07:10:30;5.70;75.00
23633;DHT22;11993;48.748;9.166;2024-02-21T07:12:56;5.60;75.40
23633;DHT22;11993;48.748;9.166;2024-02-21T07:15:22;5.70;75.10
23633;DHT22;11993;48.748;9.166;2024-02-21T07:17:52;5.60;74.80
23633;DHT22;11993;48.748;9.166;2024-02-21T07:20:17;5.70;75.10
23633;DHT22;11993;48.748;9.166;2024-02-21T07:22:43;5.80;74.80
23633;DHT22;11993;48.748;9.166;2024-02-21T07:25:09;5.80;75.10
23633;DHT22;11993;48.748;9.166;2024-02-21T07:27:35;5.90;74.60
23633;DHT22;11993;48.748;9.166;2024-02-21T07:30:00;6.00;74.30
23633;DHT22;11993;48.748;9.166;2024-02-21T07:32:26;6.10;74.00
23633;DHT22;11993;48.748;9.166;2024-02-21T07:34:52;6.20;73.90
23633;DHT22;11993;48.748;9.166;2024-02-21T07:37:17;6.30;73.40
23633;DHT22;11993;48.748;9.166;2024-02-21T07:39:43;6.60;73.20
23633;DHT22;11993;48.748;9.166;2024-02-21T07:42:08;6.60;72.70
23633;DHT22;11993;48.748;9.166;2024-02-21T07:44:34;6.60;72.60
23633;DHT22;11993;48.748;9.166;2024-02-21T07:47:00;6.70;72.50
23633;DHT22;11993;48.748;9.166;2024-02-21T07:49:25;6.60;73.00
23633;DHT22;11993;48.748;9.166;2024-02-21T07:51:51;6.60;72.80
23633;DHT22;11993;48.748;9.166;2024-02-21T07:54:18;6.60;72.80
23633;DHT22;11993;48.748;9.166;2024-02-21T07:56:44;6.70;72.60
23633;DHT22;11993;48.748;9.166;2024-02-21T07:59:10;6.60;72.80
23633;DHT22;11993;48.748;9.166;2024-02-21T08:01:36;6.80;72.60
23633;DHT22;11993;48.748;9.166;2024-02-21T08:04:02;6.90;72.50
23633;DHT22;11993;48.748;9.166;2024-02-21T08:06:29;6.80;72.40
23633;DHT22;11993;48.748;9.166;2024-02-21T08:08:55;6.80;72.70
23633;DHT22;11993;48.748;9.166;2024-02-21T08:11:22;6.90;72.40
23633;DHT22;11993;48.748;9.166;2024-02-21T08:13:48;6.90;72.60
23633;DHT22;11993;48.748;9.166;2024-02-21T08:16:14;7.10;72.30
23633;DHT22;11993;48.748;9.166;2024-02-21T08:18:40;7.10;71.60
23633;DHT22;11993;48.748;9.166;2024-02-21T08:21:08;7.30;71.20
23633;DHT22;11993;48.748;9.166;2024-02-21T08:23:34;7.30;71.30
23633;DHT22;11993;48.748;9.166;2024-02-21T08:26:02;7.30;70.70
23633;DHT22;11993;48.748;9.166;2024-02-21T08:28:28;7.20;71.40
23633;DHT22;11993;48.748;9.166;2024-02-21T08:30:53;7.30;71.10
23633;DHT22;11993;48.748;9.166;2024-02-21T08:33:19;7.30;71.00
23633;DHT22;11993;48.748;9.166;2024-02-21T08:35:50;7.60;70.40
23633;DHT22;11993;48.748;9.166;2024-02-21T08:38:15;7.50;70.30
23633;DHT22;11993;48.748;9.166;2024-02-21T08:40:41;7.80;69.80
23633;DHT22;11993;48.748;9.166;2024-02-21T08:43:06;7.70;69.60
23633;DHT22;11993;48.748;9.166;2024-02-21T08:45:32;8.00;68.90
23633;DHT22;11993;48.748;9.166;2024-02-21T08:47:57;7.80;69.20
23633;DHT22;11993;48.748;9.166;2024-02-21T08:50:23;7.90;68.80
23633;DHT22;11993;48.748;9.166;2024-02-21T08:52:48;7.90;69.40
23633;DHT22;11993;48.748;9.166;2024-02-21T08:55:14;7.70;69.30
23633;DHT22;11993;48.748;9.166;2024-02-21T08:57:39;8.10;68.60
23633;DHT22;11993;48.748;9.166;2024-02-21T09:00:06;7.70;68.70
23633;DHT22;11993;48.748;9.166;2024-02-21T09:02:41;7.70;68.80
23633;DHT22;11993;48.748;9.166;2024-02-21T09:05:10;7.80;68.70
23633;DHT22;11993;48.748;9.166;2024-02-21T09:07:36;7.80;68.80
23633;DHT22;11993;48.748;9.166;2024-02-21T09:10:01;7.80;68.90
23633;DHT22;11993;48.748;9.166;2024-02-21T09:12:27;7.90;69.20
23633;DHT22;11993;48.748;9.166;2024-02-21T09:14:52;8.00;68.50
23633;DHT22;11993;48.748;9.166;2024-02-21T09:17:18;8.00;68.10
23633;DHT22;11993;48.748;9.166;2024-02-21T09:19:46;8.20;67.40
23633;DHT22;11993;48.748;9.166;2024-02-21T09:22:12;8.20;66.60
23633;DHT22;11993;48.748;9.166;2024-02-21T09:24:37;8.20;66.90
23633;DHT22;11993;48.748;9.166;2024-02-21T09:27:03;8.10;67.00
23633;DHT22;11993;48.748;9.166;2024-02-21T09:29:29;8.30;66.30
23633;DHT22;11993;48.748;9.166;2024-02-21T09:31:54;8.50;65.80
23633;DHT22;11993;48.748;9.166;2024-02-21T09:34:20;8.70;64.60
23633;DHT22;11993;48.748;9.166;2024-02-21T09:36:45;8.60;64.50
23633;DHT22;11993;48.748;9.166;2024-02-21T09:39:11;8.90;64.40
23633;DHT22;11993;48.748;9.166;2024-02-21T09:41:45;9.00;63.80
23633;DHT22;11993;48.748;9.166;2024-02-21T09:44:14;9.10;63.70
23633;DHT22;11993;48.748;9.166;2024-02-21T09:47:03;9.50;62.20
23633;DHT22;11993;48.748;9.166;2024-02-21T09:49:32;9.30;61.60
23633;DHT22;11993;48.748;9.166;2024-02-21T09:52:05;9.50;61.50
23633;DHT22;11993;48.748;9.166;2024-02-21T09:54:33;9.40;61.50
23633;DHT22;11993;48.748;9.166;2024-02-21T09:57:03;9.40;61.10
23633;DHT22;11993;48.748;9.166;2024-02-21T09:59:33;10.00;60.50
23633;DHT22;11993;48.748;9.166;2024-02-21T10:01:59;10.30;59.30
23633;DHT22;11993;48.748;9.166;2024-02-21T10:04:26;10.50;57.80
23633;DHT22;11993;48.748;9.166;2024-02-21T10:06:51;10.20;58.70
23633;DHT22;11993;48.748;9.166;2024-02-21T10:09:25;9.80;59.90
23633;DHT22;11993;48.748;9.166;2024-02-21T10:11:53;10.20;58.40
23633;DHT22;11993;48.748;9.166;2024-02-21T10:14:19;10.20;57.90
23633;DHT22;11993;48.748;9.166;2024-02-21T10:16:47;10.10;57.40
23633;DHT22;11993;48.748;9.166;2024-02-21T10:19:20;10.20;57.60
23633;DHT22;11993;48.748;9.166;2024-02-21T10:22:06;10.30;57.60
23633;DHT22;11993;48.748;9.166;2024-02-21T10:24:33;10.40;57.50
23633;DHT22;11993;48.748;9.166;2024-02-21T10:27:03;10.70;56.80
23633;DHT22;11993;48.748;9.166;2024-02-21T10:29:32;10.90;56.90
23633;DHT22;11993;48.748;9.166;2024-02-21T10:32:12;11.40;55.90
23633;DHT22;11993;48.748;9.166;2024-02-21T10:34:39;11.30;54.80
23633;DHT22;11993;48.748;9.166;2024-02-21T10:37:06;11.20;54.20
23633;DHT22;11993;48.748;9.166;2024-02-21T10:39:33;10.80;54.90
23633;DHT22;11993;48.748;9.166;2024-02-21T10:42:02;10.80;56.20
23633;DHT22;11993;48.748;9.166;2024-02-21T10:44:33;11.20;54.70
23633;DHT22;11993;48.748;9.166;2024-02-21T10:46:59;11.10;54.80
23633;DHT22;11993;48.748;9.166;2024-02-21T10:49:26;10.90;54.60
23633;DHT22;11993;48.748;9.166;2024-02-21T10:52:13;11.50;54.90
23633;DHT22;11993;48.748;9.166;2024-02-21T10:54:58;11.30;53.50
23633;DHT22;11993;48.748;9.166;2024-02-21T10:57:25;11.10;53.70
23633;DHT22;11993;48.748;9.166;2024-02-21T10:59:53;11.30;53.90
23633;DHT22;11993;48.748;9.166;2024-02-21T11:02:20;11.30;53.20
23633;DHT22;11993;48.748;9.166;2024-02-21T11:04:46;11.00;53.40
23633;DHT22;11993;48.748;9.166;2024-02-21T11:07:13;11.10;54.60
23633;DHT22;11993;48.748;9.166;2024-02-21T11:09:40;11.00;55.10
23633;DHT22;11993;48.748;9.166;2024-02-21T11:12:06;11.20;53.00
23633;DHT22;11993;48.748;9.166;2024-02-21T11:14:32;11.00;54.00
23633;DHT22;11993;48.748;9.166;2024-02-21T11:16:58;11.40;53.40
23633;DHT22;11993;48.748;9.166;2024-02-21T11:19:28;11.10;53.90
23633;DHT22;11993;48.748;9.166;2024-02-21T11:21:55;11.30;53.30
23633;DHT22;11993;48.748;9.166;2024-02-21T11:24:29;11.50;53.10
23633;DHT22;11993;48.748;9.166;2024-02-21T11:26:56;11.10;53.30
23633;DHT22;11993;48.748;9.166;2024-02-21T11:29:25;11.20;52.80
23633;DHT22;11993;48.748;9.166;2024-02-21T11:31:51;11.30;52.90
23633;DHT22;11993;48.748;9.166;2024-02-21T11:34:18;11.50;52.20
23633;DHT22;11993;48.748;9.166;2024-02-21T11:36:51;11.50;52.10
23633;DHT22;11993;48.748;9.166;2024-02-21T11:39:24;11.50;51.20
23633;DHT22;11993;48.748;9.166;2024-02-21T11:42:07;11.40;50.40
23633;DHT22;11993;48.748;9.166;2024-02-21T11:44:33;11.60;50.60
23633;DHT22;11993;48.748;9.166;2024-02-21T11:46:59;11.50;50.20
23633;DHT22;11993;48.748;9.166;2024-02-21T11:49:26;11.50;49.70
23633;DHT22;11993;48.748;9.166;2024-02-21T11:52:02;11.50;49.60
23633;DHT22;11993;48.748;9.166;2024-02-21T11:54:30;11.40;50.20
23633;DHT22;11993;48.748;9.166;2024-02-21T11:56:55;11.40;50.00
23633;DHT22;11993;48.748;9.166;2024-02-21T11:59:21;11.60;50.00
23633;DHT22;11993;48.748;9.166;2024-02-21T12:01:48;11.40;50.30
23633;DHT22;11993;48.748;9.166;2024-02-21T12:04:13;11.30;49.40
23633;DHT22;11993;48.748;9.166;2024-02-21T12:06:39;11.50;49.20
23633;DHT22;11993;48.748;9.166;2024-02-21T12:09:08;11.40;49.10
23633;DHT22;11993;48.748;9.166;2024-02-21T12:11:36;11.60;49.00
23633;DHT22;11993;48.748;9.166;2024-02-21T12:14:03;11.40;49.00
23633;DHT22;11993;48.748;9.166;2024-02-21T12:16:31;11.60;48.80
23633;DHT22;11993;48.748;9.166;2024-02-21T12:18:57;11.60;49.00
23633;DHT22;11993;48.748;9.166;2024-02-21T12:21:26;11.60;48.80
23633;DHT22;11993;48.748;9.166;2024-02-21T12:23:55;11.80;48.30
23633;DHT22;11993;48.748;9.166;2024-02-21T12:26:21;11.90;47.00
23633;DHT22;11993;48.748;9.166;2024-02-21T12:28:47;12.10;46.20
23633;DHT22;11993;48.748;9.166;2024-02-21T12:31:13;12.40;46.20
23633;DHT22;11993;48.748;9.166;2024-02-21T12:33:39;12.60;45.40
23633;DHT22;11993;48.748;9.166;2024-02-21T12:36:05;12.60;44.00
23633;DHT22;11993;48.748;9.166;2024-02-21T12:38:30;12.60;44.00
23633;DHT22;11993;48.748;9.166;2024-02-21T12:40:56;12.90;43.00
23633;DHT22;11993;48.748;9.166;2024-02-21T12:43:23;12.20;45.40
23633;DHT22;11993;48.748;9.166;2024-02-21T12:45:49;12.30;45.90
23633;DHT22;11993;48.748;9.166;2024-02-21T12:48:14;12.10;46.60
23633;DHT22;11993;48.748;9.166;2024-02-21T12:50:42;12.20;46.00
23633;DHT22;11993;48.748;9.166;2024-02-21T12:53:09;12.20;45.20
23633;DHT22;11993;48.748;9.166;2024-02-21T12:55:34;12.40;45.20
23633;DHT22;11993;48.748;9.166;2024-02-21T12:58:03;12.10;45.40
23633;DHT22;11993;48.748;9.166;2024-02-21T13:00:29;12.30;45.20
23633;DHT22;11993;48.748;9.166;2024-02-21T13:02:56;12.10;45.90
23633;DHT22;11993;48.748;9.166;2024-02-21T13:05:22;12.00;45.70
23633;DHT22;11993;48.748;9.166;2024-02-21T13:07:48;11.90;45.40
23633;DHT22;11993;48.748;9.166;2024-02-21T13:10:14;12.00;45.10
23633;DHT22;11993;48.748;9.166;2024-02-21T13:12:39;11.90;44.90
23633;DHT22;11993;48.748;9.166;2024-02-21T13:15:06;12.10;44.70
23633;DHT22;11993;48.748;9.166;2024-02-21T13:17:31;12.10;45.30
23633;DHT22;11993;48.748;9.166;2024-02-21T13:19:57;11.90;44.10
23633;DHT22;11993;48.748;9.166;2024-02-21T13:22:23;12.00;44.40
23633;DHT22;11993;48.748;9.166;2024-02-21T13:24:51;12.00;44.10
23633;DHT22;11993;48.748;9.166;2024-02-21T13:27:17;12.20;43.70
23633;DHT22;11993;48.748;9.166;2024-02-21T13:29:42;12.10;43.90
23633;DHT22;11993;48.748;9.166;2024-02-21T13:32:08;11.90;43.40
23633;DHT22;11993;48.748;9.166;2024-02-21T13:34:34;12.10;43.10
23633;DHT22;11993;48.748;9.166;2024-02-21T13:36:59;12.20;43.40
23633;DHT22;11993;48.748;9.166;2024-02-21T13:39:25;12.10;43.40
23633;DHT22;11993;48.748;9.166;2024-02-21T13:41:51;12.10;43.60
23633;DHT22;11993;48.748;9.166;2024-02-21T13:44:16;12.20;43.80
23633;DHT22;11993;48.748;9.166;2024-02-21T13:46:42;12.00;43.70
23633;DHT22;11993;48.748;9.166;2024-02-21T13:49:08;12.20;43.50
23633;DHT22;11993;48.748;9.166;2024-02-21T13:51:34;12.10;43.90
23633;DHT22;11993;48.748;9.166;2024-02-21T13:54:02;12.10;44.00
23633;DHT22;11993;48.748;9.166;2024-02-21T13:56:28;12.10;44.00
23633;DHT22;11993;48.748;9.166;2024-02-21T13:58:54;12.00;44.40
23633;DHT22;11993;48.748;9.166;2024-02-21T14:01:20;11.90;44.50
23633;DHT22;11993;48.748;9.166;2024-02-21T14:03:46;12.00;44.40
23633;DHT22;11993;48.748;9.166;2024-02-21T14:06:12;12.10;44.60
23633;DHT22;11993;48.748;9.166;2024-02-21T14:08:37;11.80;44.50
23633;DHT22;11993;48.748;9.166;2024-02-21T14:11:05;12.10;44.90
23633;DHT22;11993;48.748;9.166;2024-02-21T14:13:31;11.80;44.70
23633;DHT22;11993;48.748;9.166;2024-02-21T14:15:57;11.80;45.00
23633;DHT22;11993;48.748;9.166;2024-02-21T14:18:22;11.80;45.30
23633;DHT22;11993;48.748;9.166;2024-02-21T14:20:48;11.80;44.80
23633;DHT22;11993;48.748;9.166;2024-02-21T14:23:13;11.90;44.90
23633;DHT22;11993;48.748;9.166;2024-02-21T14:25:39;11.90;45.40
23633;DHT22;11993;48.748;9.166;2024-02-21T14:28:05;11.70;45.20
23633;DHT22;11993;48.748;9.166;2024-02-21T14:30:31;11.90;45.80
23633;DHT22;11993;48.748;9.166;2024-02-21T14:32:56;11.90;46.10
23633;DHT22;11993;48.748;9.166;2024-02-21T14:35:22;12.00;44.90
23633;DHT22;11993;48.748;9.166;2024-02-21T14:37:47;12.00;44.00
23633;DHT22;11993;48.748;9.166;2024-02-21T14:40:17;12.00;44.60
23633;DHT22;11993;48.748;9.166;2024-02-21T14:42:45;12.00;44.30
23633;DHT22;11993;48.748;9.166;2024-02-21T14:45:11;12.00;44.20
23633;DHT22;11993;48.748;9.166;2024-02-21T14:47:39;11.90;43.80
23633;DHT22;11993;48.748;9.166;2024-02-21T14:50:05;11.80;44.60
23633;DHT22;11993;48.748;9.166;2024-02-21T14:52:31;11.90;45.50
23633;DHT22;11993;48.748;9.166;2024-02-21T14:54:58;11.80;45.60
23633;DHT22;11993;48.748;9.166;2024-02-21T14:57:24;11.90;46.20
23633;DHT22;11993;48.748;9.166;2024-02-21T14:59:50;11.70;46.50
23633;DHT22;11993;48.748;9.166;2024-02-21T15:02:22;11.80;46.50
23633;DHT22;11993;48.748;9.166;2024-02-21T15:04:48;11.70;47.60
23633;DHT22;11993;48.748;9.166;2024-02-21T15:07:17;11.60;47.60
23633;DHT22;11993;48.748;9.166;2024-02-21T15:09:42;11.60;47.40
23633;DHT22;11993;48.748;9.166;2024-02-21T15:12:09;11.60;48.30
23633;DHT22;11993;48.748;9.166;2024-02-21T15:14:35;11.60;48.30
23633;DHT22;11993;48.748;9.166;2024-02-21T15:17:01;11.70;49.00
23633;DHT22;11993;48.748;9.166;2024-02-21T15:19:27;11.60;49.60
23633;DHT22;11993;48.748;9.166;2024-02-21T15:21:52;11.70;50.00
23633;DHT22;11993;48.748;9.166;2024-02-21T15:24:19;11.60;50.50
23633;DHT22;11993;48.748;9.166;2024-02-21T15:26:48;11.60;51.10
23633;DHT22;11993;48.748;9.166;2024-02-21T15:29:14;11.60;50.20
23633;DHT22;11993;48.748;9.166;2024-02-21T15:31:40;11.60;50.60
23633;DHT22;11993;48.748;9.166;2024-02-21T15:34:13;11.60;50.30
23633;DHT22;11993;48.748;9.166;2024-02-21T15:36:41;11.60;50.80
23633;DHT22;11993;48.748;9.166;2024-02-21T15:39:08;11.70;50.80